createdAt,value
2018-12-31T00:00:44.344Z,18.93
2018-12-31T00:03:11.959Z,15.27
2018-12-31T00:05:39.530Z,17.70
2018-12-31T00:08:07.108Z,13.07
2018-12-31T00:10:34.697Z,13.37
2018-12-31T00:13:02.261Z,9.70
2018-12-31T00:15:30.633Z,10.07
2018-12-31T00:17:58.206Z,9.57
2018-12-31T00:20:25.775Z,12.52
2018-12-31T00:22:54.139Z,9.60
2018-12-31T00:25:21.746Z,10.03
2018-12-31T00:27:49.308Z,14.38
2018-12-31T00:30:16.882Z,12.23
2018-12-31T00:32:44.448Z,11.53
2018-12-31T00:35:12.395Z,10.00
2018-12-31T00:37:39.959Z,11.97
2018-12-31T00:40:07.523Z,10.70
2018-12-31T00:42:35.129Z,11.13
2018-12-31T00:45:03.003Z,10.77
2018-12-31T00:47:30.602Z,13.35
2018-12-31T00:49:58.186Z,12.90
2018-12-31T00:52:25.759Z,11.17
2018-12-31T00:54:53.350Z,11.63
2018-12-31T00:57:21.294Z,11.17
2018-12-31T00:59:48.890Z,11.57
2018-12-31T01:02:16.469Z,11.13
2018-12-31T01:04:44.071Z,10.20
2018-12-31T01:07:11.642Z,10.03
2018-12-31T01:09:39.948Z,16.70
2018-12-31T01:12:07.519Z,11.17
2018-12-31T01:14:35.906Z,11.50
2018-12-31T01:17:04.245Z,9.37
2018-12-31T01:19:31.825Z,10.77
2018-12-31T01:21:59.427Z,12.30
2018-12-31T01:24:27.789Z,11.73
2018-12-31T01:26:56.150Z,9.47
2018-12-31T01:29:23.736Z,11.57
2018-12-31T01:31:51.316Z,13.07
2018-12-31T01:34:18.894Z,12.68
2018-12-31T01:36:46.487Z,9.17
2018-12-31T01:39:14.142Z,11.10
2018-12-31T01:41:41.887Z,10.23
2018-12-31T01:44:09.226Z,9.47
2018-12-31T01:46:36.821Z,10.77
2018-12-31T01:49:04.394Z,10.23
2018-12-31T01:51:31.995Z,10.87
2018-12-31T01:53:59.565Z,8.80
2018-12-31T01:56:27.133Z,9.40
2018-12-31T01:58:54.729Z,11.70
2018-12-31T02:01:22.300Z,10.00
2018-12-31T02:03:49.909Z,11.40
2018-12-31T02:06:17.484Z,11.93
2018-12-31T02:08:45.052Z,12.10
2018-12-31T02:11:12.643Z,10.07
2018-12-31T02:13:40.215Z,12.27
2018-12-31T02:16:08.586Z,13.45
2018-12-31T02:18:36.157Z,11.23
2018-12-31T02:21:03.730Z,11.53
2018-12-31T02:23:31.332Z,13.17
2018-12-31T02:25:58.915Z,11.30
2018-12-31T02:28:26.518Z,10.90
2018-12-31T02:30:54.105Z,12.60
2018-12-31T02:33:21.684Z,13.93
2018-12-31T02:35:49.284Z,12.23
2018-12-31T02:38:16.859Z,11.70
2018-12-31T02:40:44.461Z,13.93
2018-12-31T02:43:12.053Z,15.33
2018-12-31T02:45:39.654Z,12.40
2018-12-31T02:48:07.996Z,11.90
2018-12-31T02:50:35.597Z,12.27
2018-12-31T02:53:03.936Z,12.57
2018-12-31T02:55:31.508Z,11.90
2018-12-31T02:57:59.465Z,13.07
2018-12-31T03:00:27.042Z,11.73
2018-12-31T03:02:54.609Z,11.40
2018-12-31T03:05:22.210Z,14.17
2018-12-31T03:07:50.551Z,14.83
2018-12-31T03:10:18.157Z,13.53
2018-12-31T03:12:45.722Z,12.67
2018-12-31T03:15:13.318Z,12.23
2018-12-31T03:17:40.891Z,13.13
2018-12-31T03:20:08.496Z,13.33
2018-12-31T03:22:36.070Z,14.93
2018-12-31T03:25:04.093Z,12.97
2018-12-31T03:27:31.669Z,11.90
2018-12-31T03:29:59.242Z,14.77
2018-12-31T03:32:40.587Z,12.67
2018-12-31T03:35:08.153Z,14.30
2018-12-31T03:37:36.128Z,11.57
2018-12-31T03:40:03.700Z,10.83
2018-12-31T03:42:31.271Z,15.18
2018-12-31T03:44:59.639Z,14.70
2018-12-31T03:47:27.212Z,13.40
2018-12-31T03:49:54.811Z,16.85
2018-12-31T03:52:22.375Z,12.37
2018-12-31T03:54:49.976Z,11.70
2018-12-31T03:57:17.549Z,12.57
2018-12-31T03:59:45.494Z,12.23
2018-12-31T04:02:13.073Z,11.00
2018-12-31T04:04:40.639Z,9.87
2018-12-31T04:07:08.238Z,12.85
2018-12-31T04:09:35.811Z,10.07
2018-12-31T04:12:03.420Z,13.87
2018-12-31T04:14:30.987Z,10.77
2018-12-31T04:16:58.580Z,13.55
2018-12-31T04:19:26.920Z,13.80
2018-12-31T04:21:54.884Z,12.43
2018-12-31T04:24:22.470Z,12.90
2018-12-31T04:26:50.046Z,13.65
2018-12-31T04:29:17.910Z,12.13
2018-12-31T04:31:46.248Z,12.00
2018-12-31T04:34:13.822Z,12.63
2018-12-31T04:36:41.418Z,13.33
2018-12-31T04:39:09.752Z,12.00
2018-12-31T04:41:37.345Z,9.20
2018-12-31T04:44:04.917Z,12.33
2018-12-31T04:46:33.271Z,11.60
2018-12-31T04:49:00.843Z,12.93
2018-12-31T04:51:28.440Z,12.27
2018-12-31T04:53:56.017Z,11.93
2018-12-31T04:56:23.587Z,11.63
2018-12-31T04:58:51.462Z,11.03
2018-12-31T05:01:19.026Z,12.47
2018-12-31T05:03:46.623Z,9.90
2018-12-31T05:06:14.192Z,11.73
2018-12-31T05:08:42.552Z,12.37
2018-12-31T05:11:10.122Z,10.50
2018-12-31T05:13:37.725Z,14.82
2018-12-31T05:16:05.298Z,10.83
2018-12-31T05:18:33.192Z,12.13
2018-12-31T05:21:00.765Z,13.23
2018-12-31T05:23:28.333Z,11.30
2018-12-31T05:25:55.946Z,12.35
2018-12-31T05:28:23.515Z,15.20
2018-12-31T05:30:51.121Z,15.20
2018-12-31T05:33:18.699Z,15.70
2018-12-31T05:35:46.257Z,16.63
2018-12-31T05:38:14.623Z,16.10
2018-12-31T05:40:42.204Z,17.35
2018-12-31T05:43:10.937Z,14.30
2018-12-31T05:45:38.518Z,15.27
2018-12-31T05:48:06.078Z,12.17
2018-12-31T05:50:33.673Z,14.60
2018-12-31T05:53:02.007Z,13.07
2018-12-31T05:55:29.615Z,12.57
2018-12-31T05:57:57.951Z,13.13
2018-12-31T06:00:25.564Z,10.57
2018-12-31T06:02:53.140Z,10.77
2018-12-31T06:05:20.734Z,9.97
2018-12-31T06:07:48.308Z,12.13
2018-12-31T06:10:15.900Z,12.67
2018-12-31T06:12:44.241Z,8.83
2018-12-31T06:15:11.808Z,10.93
2018-12-31T06:17:39.404Z,11.93
2018-12-31T06:20:07.743Z,11.27
2018-12-31T06:22:35.331Z,12.33
2018-12-31T06:25:02.917Z,11.63
2018-12-31T06:27:31.267Z,11.30
2018-12-31T06:29:58.840Z,11.67
2018-12-31T06:32:27.205Z,11.17
2018-12-31T06:34:54.767Z,10.40
2018-12-31T06:37:22.373Z,12.77
2018-12-31T06:39:49.951Z,13.90
2018-12-31T06:42:17.521Z,15.37
2018-12-31T06:44:45.115Z,13.40
2018-12-31T06:47:12.709Z,14.17
2018-12-31T06:49:40.638Z,15.05
2018-12-31T06:52:08.211Z,11.13
2018-12-31T06:54:35.779Z,11.33
2018-12-31T06:57:03.385Z,14.13
2018-12-31T06:59:30.966Z,14.63
2018-12-31T07:01:58.566Z,10.40
2018-12-31T07:04:26.146Z,13.10
2018-12-31T07:06:55.507Z,12.43
2018-12-31T07:09:23.076Z,13.03
2018-12-31T07:11:50.644Z,14.43
2018-12-31T07:14:18.240Z,12.43
2018-12-31T07:16:45.817Z,9.47
2018-12-31T07:19:13.407Z,11.30
2018-12-31T07:21:40.976Z,9.97
2018-12-31T07:24:08.926Z,10.20
2018-12-31T07:26:36.424Z,12.45
2018-12-31T07:29:03.996Z,13.37
2018-12-31T07:31:32.363Z,14.20
2018-12-31T07:33:59.934Z,12.57
2018-12-31T07:36:28.300Z,12.93
2018-12-31T07:38:55.871Z,12.23
2018-12-31T07:41:23.852Z,12.90
2018-12-31T07:43:52.200Z,12.77
2018-12-31T07:46:19.819Z,12.43
2018-12-31T07:48:47.412Z,11.37
2018-12-31T07:51:14.984Z,13.77
2018-12-31T07:53:42.584Z,15.50
2018-12-31T07:56:10.930Z,15.63
2018-12-31T07:58:38.531Z,12.43
2018-12-31T08:01:07.199Z,13.97
2018-12-31T08:03:35.053Z,16.23
2018-12-31T08:06:02.631Z,19.53
2018-12-31T08:08:30.973Z,15.70
2018-12-31T08:10:58.575Z,14.10
2018-12-31T08:13:26.925Z,17.57
2018-12-31T08:15:54.586Z,13.97
2018-12-31T08:18:22.130Z,11.93
2018-12-31T08:20:49.737Z,12.13
2018-12-31T08:23:17.312Z,10.93
2018-12-31T08:25:44.905Z,10.00
2018-12-31T08:28:12.485Z,10.27
2018-12-31T08:30:40.377Z,12.43
2018-12-31T08:33:07.956Z,10.77
2018-12-31T08:35:36.300Z,12.80
2018-12-31T08:38:03.903Z,12.87
2018-12-31T08:40:32.250Z,16.60
2018-12-31T08:42:59.865Z,10.60
2018-12-31T08:45:27.441Z,11.77
2018-12-31T08:47:55.078Z,12.07
2018-12-31T08:50:22.646Z,11.50
2018-12-31T08:52:50.211Z,11.77
2018-12-31T08:55:17.847Z,11.13
2018-12-31T08:57:45.385Z,10.10
2018-12-31T09:00:12.982Z,11.63
2018-12-31T09:02:41.315Z,10.40
2018-12-31T09:05:08.918Z,13.57
2018-12-31T09:07:37.253Z,11.37
2018-12-31T09:10:04.859Z,9.47
2018-12-31T09:12:32.442Z,10.40
2018-12-31T09:15:00.124Z,8.83
2018-12-31T09:17:27.613Z,9.77
2018-12-31T09:19:55.185Z,10.30
2018-12-31T09:22:22.786Z,16.17
2018-12-31T09:24:50.360Z,10.20
2018-12-31T09:27:18.245Z,12.53
2018-12-31T09:29:45.828Z,13.90
2018-12-31T09:32:13.800Z,19.87
2018-12-31T09:34:41.371Z,15.97
2018-12-31T09:37:08.939Z,14.17
2018-12-31T09:39:36.533Z,17.93
2018-12-31T09:42:04.106Z,12.37
2018-12-31T09:44:32.096Z,17.50
2018-12-31T09:47:00.064Z,15.10
2018-12-31T09:49:27.664Z,13.83
2018-12-31T09:51:55.233Z,11.73
2018-12-31T09:54:23.889Z,16.10
2018-12-31T09:56:51.848Z,11.53
2018-12-31T09:59:19.414Z,11.53
2018-12-31T10:01:47.006Z,11.90
2018-12-31T10:04:14.581Z,13.43
2018-12-31T10:06:42.959Z,16.13
2018-12-31T10:09:12.033Z,14.20
2018-12-31T10:11:39.687Z,11.60
2018-12-31T10:14:07.556Z,14.40
2018-12-31T10:16:35.129Z,11.87
2018-12-31T10:19:02.732Z,14.07
2018-12-31T10:21:30.382Z,11.13
2018-12-31T10:23:57.912Z,12.83
2018-12-31T10:26:25.486Z,12.53
2018-12-31T10:28:53.055Z,10.07
2018-12-31T10:31:21.418Z,9.40
2018-12-31T10:33:48.993Z,9.03
2018-12-31T10:36:17.364Z,10.17
2018-12-31T10:38:51.047Z,9.70
2018-12-31T10:41:13.966Z,9.60
2018-12-31T10:43:41.533Z,9.60
2018-12-31T10:46:09.947Z,10.73
2018-12-31T10:48:37.833Z,10.07
2018-12-31T10:51:05.407Z,12.50
2018-12-31T10:53:34.155Z,11.50
2018-12-31T10:56:01.702Z,13.50
2018-12-31T10:58:29.290Z,9.10
2018-12-31T11:00:57.103Z,8.73
2018-12-31T11:03:25.447Z,8.67
2018-12-31T11:05:53.080Z,11.37
2018-12-31T11:08:20.658Z,9.03
2018-12-31T11:10:48.224Z,10.50
2018-12-31T11:13:15.827Z,10.82
2018-12-31T11:15:43.403Z,11.10
2018-12-31T11:18:10.972Z,7.93
2018-12-31T11:20:38.573Z,8.70
2018-12-31T11:23:06.151Z,10.00
2018-12-31T11:25:34.520Z,11.30
2018-12-31T11:28:02.098Z,10.50
2018-12-31T11:30:31.257Z,9.90
2018-12-31T11:32:58.031Z,9.47
2018-12-31T11:35:26.666Z,9.40
2018-12-31T11:37:54.262Z,9.83
2018-12-31T11:40:21.817Z,9.60
2018-12-31T11:42:49.478Z,9.50
2018-12-31T11:45:17.091Z,11.27
2018-12-31T11:47:45.022Z,11.38
2018-12-31T11:50:12.604Z,13.23
2018-12-31T11:52:40.947Z,11.90
2018-12-31T11:55:08.609Z,9.53
2018-12-31T11:57:36.896Z,10.68
2018-12-31T12:00:04.499Z,18.37
2018-12-31T12:02:32.076Z,12.00
2018-12-31T12:04:59.694Z,12.37
2018-12-31T12:07:27.338Z,22.17
2018-12-31T12:09:54.881Z,28.73
2018-12-31T12:12:23.114Z,22.10
2018-12-31T12:14:51.464Z,16.73
2018-12-31T12:17:19.042Z,11.10
2018-12-31T12:19:46.646Z,11.93
2018-12-31T12:22:14.227Z,12.57
2018-12-31T12:24:41.821Z,11.67
2018-12-31T12:27:09.401Z,10.87
2018-12-31T12:29:37.795Z,10.77
2018-12-31T12:32:06.130Z,10.97
2018-12-31T12:34:33.709Z,13.37
2018-12-31T12:37:01.319Z,12.65
2018-12-31T12:39:28.897Z,14.13
2018-12-31T12:41:56.498Z,13.37
2018-12-31T12:44:25.145Z,13.73
2018-12-31T12:46:52.752Z,12.70
2018-12-31T12:49:20.341Z,11.50
2018-12-31T12:51:48.662Z,10.23
2018-12-31T12:54:16.242Z,10.53
2018-12-31T12:56:43.827Z,10.37
2018-12-31T12:59:12.197Z,10.37
2018-12-31T13:01:39.771Z,11.00
2018-12-31T13:04:08.133Z,10.33
2018-12-31T13:06:36.473Z,10.33
2018-12-31T13:09:04.117Z,15.13
2018-12-31T13:11:31.694Z,13.97
2018-12-31T13:13:59.301Z,14.37
2018-12-31T13:16:27.639Z,16.80
2018-12-31T13:18:55.225Z,12.63
2018-12-31T13:21:22.826Z,13.23
2018-12-31T13:23:50.404Z,12.10
2018-12-31T13:26:17.974Z,11.70
2018-12-31T13:28:45.637Z,10.50
2018-12-31T13:31:13.938Z,12.10
2018-12-31T13:33:44.532Z,11.27
2018-12-31T13:36:12.107Z,11.57
2018-12-31T13:38:39.719Z,11.23
2018-12-31T13:41:08.088Z,13.47
2018-12-31T13:43:36.060Z,14.23
2018-12-31T13:46:03.642Z,13.20
2018-12-31T13:48:31.218Z,11.57
2018-12-31T13:50:58.826Z,12.37
2018-12-31T13:53:26.684Z,10.33
2018-12-31T13:55:54.288Z,9.37
2018-12-31T13:58:22.629Z,12.87
2018-12-31T14:00:50.236Z,11.33
2018-12-31T14:03:19.780Z,11.23
2018-12-31T14:05:46.455Z,11.53
2018-12-31T14:08:14.029Z,14.67
2018-12-31T14:10:41.602Z,16.17
2018-12-31T14:13:09.973Z,10.10
2018-12-31T14:15:38.717Z,11.80
2018-12-31T14:18:06.342Z,11.50
2018-12-31T14:20:34.700Z,10.40
2018-12-31T14:23:02.284Z,14.73
2018-12-31T14:25:30.664Z,15.17
2018-12-31T14:27:59.012Z,18.07
2018-12-31T14:30:26.632Z,25.77
2018-12-31T14:32:54.217Z,16.30
2018-12-31T14:35:21.788Z,15.93
2018-12-31T14:37:49.615Z,16.37
2018-12-31T14:40:17.183Z,16.43
2018-12-31T14:42:44.765Z,15.77
2018-12-31T14:45:12.366Z,15.93
2018-12-31T14:47:39.939Z,15.20
2018-12-31T14:50:08.885Z,13.13
2018-12-31T14:52:36.468Z,14.70
2018-12-31T14:55:04.070Z,14.23
2018-12-31T14:57:31.679Z,13.77
2018-12-31T14:59:59.629Z,13.57
2018-12-31T15:02:27.197Z,19.10
2018-12-31T15:04:54.785Z,14.57
2018-12-31T15:07:22.387Z,19.73
2018-12-31T15:09:49.983Z,18.48
2018-12-31T15:12:17.591Z,16.60
2018-12-31T15:14:45.936Z,17.43
2018-12-31T15:17:13.955Z,19.70
2018-12-31T15:19:41.494Z,16.90
2018-12-31T15:22:09.072Z,16.43
2018-12-31T15:24:37.457Z,15.30
2018-12-31T15:27:05.021Z,15.73
2018-12-31T15:29:33.685Z,17.70
2018-12-31T15:32:01.305Z,17.33
2018-12-31T15:34:29.615Z,15.47
2018-12-31T15:36:57.232Z,15.23
2018-12-31T15:39:24.809Z,17.85
2018-12-31T15:41:52.428Z,20.90
2018-12-31T15:44:20.771Z,17.50
2018-12-31T15:46:48.351Z,16.27
2018-12-31T15:49:15.965Z,15.20
2018-12-31T15:51:43.539Z,16.20
2018-12-31T15:54:11.134Z,15.23
2018-12-31T15:56:38.926Z,22.13
2018-12-31T15:59:07.297Z,24.13
2018-12-31T16:01:35.643Z,25.43
2018-12-31T16:04:03.282Z,24.33
2018-12-31T16:06:30.864Z,20.30
2018-12-31T16:08:58.737Z,21.97
2018-12-31T16:11:26.334Z,24.25
2018-12-31T16:13:54.682Z,24.13
2018-12-31T16:16:22.288Z,23.33
2018-12-31T16:18:49.861Z,22.17
2018-12-31T16:21:17.494Z,16.77
2018-12-31T16:23:45.073Z,23.03
2018-12-31T16:26:12.659Z,18.13
2018-12-31T16:28:55.924Z,21.73
2018-12-31T16:31:26.265Z,21.62
2018-12-31T16:33:53.887Z,19.63
2018-12-31T16:36:21.468Z,21.40
2018-12-31T16:38:49.044Z,22.47
2018-12-31T16:41:16.648Z,19.65
2018-12-31T16:43:44.260Z,18.97
2018-12-31T16:46:13.251Z,20.50
2018-12-31T16:48:39.767Z,14.23
2018-12-31T16:51:07.343Z,18.77
2018-12-31T16:53:34.953Z,19.53
2018-12-31T16:56:02.542Z,16.27
2018-12-31T16:58:30.155Z,19.70
2018-12-31T17:00:57.761Z,19.03
2018-12-31T17:03:25.398Z,19.03
2018-12-31T17:05:52.940Z,22.73
2018-12-31T17:08:20.930Z,24.23
2018-12-31T17:10:49.276Z,20.37
2018-12-31T17:13:16.909Z,18.57
2018-12-31T17:15:44.493Z,24.85
2018-12-31T17:18:12.075Z,19.50
2018-12-31T17:20:39.684Z,21.92
2018-12-31T17:23:07.273Z,21.23
2018-12-31T17:25:34.883Z,21.90
2018-12-31T17:28:03.229Z,23.77
2018-12-31T17:30:30.924Z,23.80
2018-12-31T17:32:58.494Z,22.13
2018-12-31T17:35:26.414Z,36.63
2018-12-31T17:37:53.992Z,21.90
2018-12-31T17:40:21.574Z,27.83
2018-12-31T17:42:50.733Z,31.83
2018-12-31T17:45:22.977Z,35.10
2018-12-31T17:47:46.165Z,30.70
2018-12-31T17:50:13.779Z,37.53
2018-12-31T17:52:41.361Z,30.13
2018-12-31T17:55:08.924Z,26.73
2018-12-31T17:57:39.780Z,28.63
2018-12-31T18:00:07.359Z,27.20
2018-12-31T18:02:34.932Z,28.50
2018-12-31T18:05:02.535Z,29.20
2018-12-31T18:07:30.118Z,23.57
2018-12-31T18:09:57.986Z,25.37
2018-12-31T18:12:25.559Z,24.43
2018-12-31T18:14:53.129Z,24.50
2018-12-31T18:17:20.756Z,23.57
2018-12-31T18:19:48.309Z,29.17
2018-12-31T18:22:15.918Z,27.90
2018-12-31T18:24:43.491Z,29.33
2018-12-31T18:27:11.130Z,25.00
2018-12-31T18:29:38.769Z,24.20
2018-12-31T18:32:06.268Z,22.07
2018-12-31T18:34:33.902Z,25.37
2018-12-31T18:37:01.501Z,33.13
2018-12-31T18:39:29.074Z,27.23
2018-12-31T18:41:57.442Z,30.50
2018-12-31T18:44:25.015Z,26.20
2018-12-31T18:46:53.374Z,27.57
2018-12-31T18:49:20.955Z,27.87
2018-12-31T18:51:49.321Z,25.17
2018-12-31T18:54:16.892Z,28.30
2018-12-31T18:56:45.030Z,28.50
2018-12-31T18:59:12.608Z,28.03
2018-12-31T19:01:40.183Z,34.80
2018-12-31T19:04:07.796Z,37.90
2018-12-31T19:06:35.364Z,33.80
2018-12-31T19:09:03.469Z,30.47
2018-12-31T19:11:31.044Z,37.03
2018-12-31T19:13:58.616Z,28.50
2018-12-31T19:16:26.983Z,29.17
2018-12-31T19:18:54.564Z,28.60
2018-12-31T19:21:22.932Z,30.57
2018-12-31T19:23:51.267Z,27.27
2018-12-31T19:26:18.847Z,32.00
2018-12-31T19:28:46.445Z,29.37
2018-12-31T19:31:14.022Z,27.43
2018-12-31T19:33:41.623Z,26.67
2018-12-31T19:36:09.201Z,26.80
2018-12-31T19:38:36.805Z,25.13
2018-12-31T19:41:04.376Z,29.43
2018-12-31T19:43:31.980Z,27.87
2018-12-31T19:45:59.590Z,29.47
2018-12-31T19:48:27.151Z,28.80
2018-12-31T19:50:54.737Z,26.00
2018-12-31T19:53:22.341Z,27.57
2018-12-31T19:55:49.905Z,25.43
2018-12-31T19:58:18.564Z,28.90
2018-12-31T20:00:45.867Z,27.37
2018-12-31T20:03:13.424Z,25.77
2018-12-31T20:05:41.823Z,21.73
2018-12-31T20:08:09.397Z,28.23
2018-12-31T20:10:37.003Z,31.17
2018-12-31T20:13:04.579Z,26.77
2018-12-31T20:15:32.531Z,28.27
2018-12-31T20:18:00.104Z,29.33
2018-12-31T20:20:27.683Z,27.33
2018-12-31T20:22:56.061Z,27.70
2018-12-31T20:25:23.638Z,27.33
2018-12-31T20:27:51.235Z,30.20
2018-12-31T20:30:18.809Z,30.10
2018-12-31T20:32:46.414Z,32.17
2018-12-31T20:35:14.758Z,36.03
2018-12-31T20:37:42.403Z,31.67
2018-12-31T20:40:09.974Z,29.87
2018-12-31T20:42:37.540Z,32.47
2018-12-31T20:45:05.122Z,35.23
2018-12-31T20:47:33.076Z,25.97
2018-12-31T20:50:00.715Z,28.03
2018-12-31T20:52:28.215Z,23.90
2018-12-31T20:54:55.818Z,28.05
2018-12-31T20:57:23.397Z,26.53
2018-12-31T20:59:50.989Z,23.97
2018-12-31T21:02:18.561Z,33.43
2018-12-31T21:04:46.157Z,35.00
2018-12-31T21:07:13.728Z,34.13
2018-12-31T21:09:41.928Z,36.37
2018-12-31T21:12:09.504Z,33.53
2018-12-31T21:14:37.118Z,34.63
2018-12-31T21:17:04.694Z,31.07
2018-12-31T21:19:32.278Z,28.20
2018-12-31T21:21:59.882Z,32.43
2018-12-31T21:24:28.222Z,32.33
2018-12-31T21:26:56.210Z,29.80
2018-12-31T21:29:23.789Z,33.90
2018-12-31T21:31:52.148Z,34.17
2018-12-31T21:34:19.766Z,32.17
2018-12-31T21:36:47.340Z,29.13
2018-12-31T21:39:14.940Z,31.27
2018-12-31T21:41:42.511Z,27.87
2018-12-31T21:44:10.892Z,36.75
2018-12-31T21:46:39.245Z,29.63
2018-12-31T21:49:07.118Z,30.17
2018-12-31T21:51:34.701Z,33.87
2018-12-31T21:54:02.283Z,36.67
2018-12-31T21:56:29.889Z,27.90
2018-12-31T21:58:57.471Z,109.73
2018-12-31T22:01:25.072Z,60.60
2018-12-31T22:03:52.673Z,40.23
2018-12-31T22:06:20.273Z,29.17
2018-12-31T22:08:48.647Z,28.97
2018-12-31T22:11:16.224Z,31.00
2018-12-31T22:13:43.810Z,35.90
2018-12-31T22:16:11.410Z,32.50
2018-12-31T22:18:38.982Z,33.13
2018-12-31T22:21:06.584Z,32.80
2018-12-31T22:23:34.161Z,33.97
2018-12-31T22:26:01.769Z,31.50
2018-12-31T22:28:29.340Z,37.70
2018-12-31T22:30:56.983Z,33.77
2018-12-31T22:33:25.283Z,38.20
2018-12-31T22:35:52.861Z,32.90
2018-12-31T22:38:21.285Z,30.87
2018-12-31T22:40:48.862Z,41.27
2018-12-31T22:43:16.443Z,33.37
2018-12-31T22:45:44.054Z,33.13
2018-12-31T22:48:11.630Z,35.80
2018-12-31T22:50:39.243Z,33.67
2018-12-31T22:53:07.596Z,77.87
2018-12-31T22:55:35.173Z,49.43
2018-12-31T22:58:02.776Z,63.70
2018-12-31T23:00:30.352Z,115.57
2018-12-31T23:02:57.951Z,191.63
2018-12-31T23:05:25.548Z,921.60
2018-12-31T23:07:53.477Z,864.28
2018-12-31T23:10:21.054Z,695.07
2018-12-31T23:12:48.887Z,353.33
2018-12-31T23:15:16.495Z,153.57
2018-12-31T23:17:44.843Z,156.27
2018-12-31T23:20:12.442Z,254.70
2018-12-31T23:22:40.978Z,231.67
2018-12-31T23:25:08.572Z,174.00
2018-12-31T23:27:36.182Z,255.77
2018-12-31T23:30:03.788Z,543.43
2018-12-31T23:32:31.370Z,188.87
2018-12-31T23:34:59.005Z,304.53
2018-12-31T23:37:26.571Z,256.23
2018-12-31T23:39:54.174Z,294.03
2018-12-31T23:42:21.780Z,274.05
2018-12-31T23:44:53.121Z,282.23
2018-12-31T23:47:16.988Z,281.67
2018-12-31T23:49:44.572Z,260.53
2018-12-31T23:52:12.188Z,256.60
2018-12-31T23:54:39.786Z,239.07
2018-12-31T23:57:07.361Z,213.17
2018-12-31T23:59:34.990Z,197.37
